sensor_id;sensor_type;location;lat;lon;timestamp;temperature;humidity
81842;DHT22;71284;50.918;7.092;2023-09-08T00:01:00;20.70;61.30
81842;DHT22;71284;50.918;7.092;2023-09-08T00:03:27;20.70;61.20
81842;DHT22;71284;50.918;7.092;2023-09-08T00:05:54;20.60;61.70
81842;DHT22;71284;50.918;7.092;2023-09-08T00:08:20;20.50;61.70
81842;DHT22;71284;50.918;7.092;2023-09-08T00:10:47;20.40;61.90
81842;DHT22;71284;50.918;7.092;2023-09-08T00:13:13;20.30;62.10
81842;DHT22;71284;50.918;7.092;2023-09-08T00:15:40;20.30;62.10
81842;DHT22;71284;50.918;7.092;2023-09-08T00:18:07;20.30;62.00
81842;DHT22;71284;50.918;7.092;2023-09-08T00:20:33;20.40;61.70
81842;DHT22;71284;50.918;7.092;2023-09-08T00:23:00;20.50;61.60
81842;DHT22;71284;50.918;7.092;2023-09-08T00:25:26;20.50;61.30
81842;DHT22;71284;50.918;7.092;2023-09-08T00:27:53;20.40;61.20
81842;DHT22;71284;50.918;7.092;2023-09-08T00:30:20;20.40;61.40
81842;DHT22;71284;50.918;7.092;2023-09-08T00:32:46;20.40;61.60
81842;DHT22;71284;50.918;7.092;2023-09-08T00:35:13;20.30;61.40
81842;DHT22;71284;50.918;7.092;2023-09-08T00:37:40;20.40;61.10
81842;DHT22;71284;50.918;7.092;2023-09-08T00:40:06;20.50;61.30
81842;DHT22;71284;50.918;7.092;2023-09-08T00:42:34;20.60;61.60
81842;DHT22;71284;50.918;7.092;2023-09-08T00:45:00;20.60;60.70
81842;DHT22;71284;50.918;7.092;2023-09-08T00:47:27;20.70;60.80
81842;DHT22;71284;50.918;7.092;2023-09-08T00:49:53;20.80;60.60
81842;DHT22;71284;50.918;7.092;2023-09-08T00:52:20;20.70;60.80
81842;DHT22;71284;50.918;7.092;2023-09-08T00:54:47;20.70;60.50
81842;DHT22;71284;50.918;7.092;2023-09-08T00:57:13;20.70;60.40
81842;DHT22;71284;50.918;7.092;2023-09-08T00:59:40;20.70;60.40
81842;DHT22;71284;50.918;7.092;2023-09-08T01:02:06;20.70;60.50
81842;DHT22;71284;50.918;7.092;2023-09-08T01:04:33;20.60;60.40
81842;DHT22;71284;50.918;7.092;2023-09-08T01:07:00;20.60;60.60
81842;DHT22;71284;50.918;7.092;2023-09-08T01:09:26;20.50;60.60
81842;DHT22;71284;50.918;7.092;2023-09-08T01:11:53;20.50;60.80
81842;DHT22;71284;50.918;7.092;2023-09-08T01:14:19;20.60;60.20
81842;DHT22;71284;50.918;7.092;2023-09-08T01:16:46;20.50;60.50
81842;DHT22;71284;50.918;7.092;2023-09-08T01:19:13;20.40;60.80
81842;DHT22;71284;50.918;7.092;2023-09-08T01:21:52;20.40;60.80
81842;DHT22;71284;50.918;7.092;2023-09-08T01:24:20;20.30;61.00
81842;DHT22;71284;50.918;7.092;2023-09-08T01:26:44;20.30;61.00
81842;DHT22;71284;50.918;7.092;2023-09-08T01:29:10;20.30;60.80
81842;DHT22;71284;50.918;7.092;2023-09-08T01:31:37;20.30;60.70
81842;DHT22;71284;50.918;7.092;2023-09-08T01:34:04;20.30;61.00
81842;DHT22;71284;50.918;7.092;2023-09-08T01:36:30;20.30;61.10
81842;DHT22;71284;50.918;7.092;2023-09-08T01:38:57;20.20;60.90
81842;DHT22;71284;50.918;7.092;2023-09-08T01:41:23;20.20;60.90
81842;DHT22;71284;50.918;7.092;2023-09-08T01:43:50;20.20;61.70
81842;DHT22;71284;50.918;7.092;2023-09-08T01:46:17;20.20;60.70
81842;DHT22;71284;50.918;7.092;2023-09-08T01:48:43;20.20;60.60
81842;DHT22;71284;50.918;7.092;2023-09-08T01:51:10;20.20;60.50
81842;DHT22;71284;50.918;7.092;2023-09-08T01:53:36;20.30;60.80
81842;DHT22;71284;50.918;7.092;2023-09-08T01:56:03;20.30;60.60
81842;DHT22;71284;50.918;7.092;2023-09-08T01:58:29;20.30;60.80
81842;DHT22;71284;50.918;7.092;2023-09-08T02:00:56;20.30;61.20
81842;DHT22;71284;50.918;7.092;2023-09-08T02:03:23;20.20;61.00
81842;DHT22;71284;50.918;7.092;2023-09-08T02:05:49;20.20;60.90
81842;DHT22;71284;50.918;7.092;2023-09-08T02:08:16;20.20;61.00
81842;DHT22;71284;50.918;7.092;2023-09-08T02:10:42;20.10;60.70
81842;DHT22;71284;50.918;7.092;2023-09-08T02:13:09;20.00;61.10
81842;DHT22;71284;50.918;7.092;2023-09-08T02:15:36;20.10;61.10
81842;DHT22;71284;50.918;7.092;2023-09-08T02:18:02;20.00;61.50
81842;DHT22;71284;50.918;7.092;2023-09-08T02:20:29;19.90;61.30
81842;DHT22;71284;50.918;7.092;2023-09-08T02:22:55;19.90;61.10
81842;DHT22;71284;50.918;7.092;2023-09-08T02:25:23;19.90;61.50
81842;DHT22;71284;50.918;7.092;2023-09-08T02:27:50;19.90;61.30
81842;DHT22;71284;50.918;7.092;2023-09-08T02:30:16;19.90;61.30
81842;DHT22;71284;50.918;7.092;2023-09-08T02:32:43;19.80;61.60
81842;DHT22;71284;50.918;7.092;2023-09-08T02:35:09;19.80;61.70
81842;DHT22;71284;50.918;7.092;2023-09-08T02:37:36;19.80;61.60
81842;DHT22;71284;50.918;7.092;2023-09-08T02:40:03;19.70;61.70
81842;DHT22;71284;50.918;7.092;2023-09-08T02:42:29;19.70;61.60
81842;DHT22;71284;50.918;7.092;2023-09-08T02:44:56;19.60;61.50
81842;DHT22;71284;50.918;7.092;2023-09-08T02:47:22;19.60;61.50
81842;DHT22;71284;50.918;7.092;2023-09-08T02:49:49;19.50;61.60
81842;DHT22;71284;50.918;7.092;2023-09-08T02:52:16;19.40;62.20
81842;DHT22;71284;50.918;7.092;2023-09-08T02:54:42;19.40;62.10
81842;DHT22;71284;50.918;7.092;2023-09-08T02:57:09;19.20;62.60
81842;DHT22;71284;50.918;7.092;2023-09-08T02:59:35;19.00;63.50
81842;DHT22;71284;50.918;7.092;2023-09-08T03:02:02;18.80;64.10
81842;DHT22;71284;50.918;7.092;2023-09-08T03:04:29;18.80;63.90
81842;DHT22;71284;50.918;7.092;2023-09-08T03:06:55;18.80;63.80
81842;DHT22;71284;50.918;7.092;2023-09-08T03:09:22;19.00;63.10
81842;DHT22;71284;50.918;7.092;2023-09-08T03:11:48;19.10;62.70
81842;DHT22;71284;50.918;7.092;2023-09-08T03:14:15;19.20;62.60
81842;DHT22;71284;50.918;7.092;2023-09-08T03:16:42;19.20;62.30
81842;DHT22;71284;50.918;7.092;2023-09-08T03:19:08;19.30;62.00
81842;DHT22;71284;50.918;7.092;2023-09-08T03:21:35;19.30;62.20
81842;DHT22;71284;50.918;7.092;2023-09-08T03:24:01;19.40;62.00
81842;DHT22;71284;50.918;7.092;2023-09-08T03:26:28;19.40;62.20
81842;DHT22;71284;50.918;7.092;2023-09-08T03:28:54;19.30;62.20
81842;DHT22;71284;50.918;7.092;2023-09-08T03:31:21;19.30;61.80
81842;DHT22;71284;50.918;7.092;2023-09-08T03:33:48;19.20;61.90
81842;DHT22;71284;50.918;7.092;2023-09-08T03:36:14;19.30;61.70
81842;DHT22;71284;50.918;7.092;2023-09-08T03:38:41;19.30;61.40
81842;DHT22;71284;50.918;7.092;2023-09-08T03:41:07;19.30;61.40
81842;DHT22;71284;50.918;7.092;2023-09-08T03:43:34;19.20;61.50
81842;DHT22;71284;50.918;7.092;2023-09-08T03:46:01;19.30;61.50
81842;DHT22;71284;50.918;7.092;2023-09-08T03:48:27;19.30;61.60
81842;DHT22;71284;50.918;7.092;2023-09-08T03:50:54;19.30;61.40
81842;DHT22;71284;50.918;7.092;2023-09-08T03:53:20;19.30;61.20
81842;DHT22;71284;50.918;7.092;2023-09-08T03:55:47;19.20;61.80
81842;DHT22;71284;50.918;7.092;2023-09-08T03:58:14;19.10;61.90
81842;DHT22;71284;50.918;7.092;2023-09-08T04:00:41;19.00;62.20
81842;DHT22;71284;50.918;7.092;2023-09-08T04:03:08;18.90;62.70
81842;DHT22;71284;50.918;7.092;2023-09-08T04:05:35;18.80;62.70
81842;DHT22;71284;50.918;7.092;2023-09-08T04:08:02;18.80;62.70
81842;DHT22;71284;50.918;7.092;2023-09-08T04:10:29;18.80;63.10
81842;DHT22;71284;50.918;7.092;2023-09-08T04:12:55;18.90;62.80
81842;DHT22;71284;50.918;7.092;2023-09-08T04:15:22;18.90;62.60
81842;DHT22;71284;50.918;7.092;2023-09-08T04:17:49;18.80;62.30
81842;DHT22;71284;50.918;7.092;2023-09-08T04:20:15;18.90;62.30
81842;DHT22;71284;50.918;7.092;2023-09-08T04:22:42;18.90;62.00
81842;DHT22;71284;50.918;7.092;2023-09-08T04:25:09;18.90;62.20
81842;DHT22;71284;50.918;7.092;2023-09-08T04:27:35;18.80;62.20
81842;DHT22;71284;50.918;7.092;2023-09-08T04:30:02;18.80;62.30
81842;DHT22;71284;50.918;7.092;2023-09-08T04:32:28;18.70;62.40
81842;DHT22;71284;50.918;7.092;2023-09-08T04:34:55;18.70;62.80
81842;DHT22;71284;50.918;7.092;2023-09-08T04:37:21;18.60;62.60
81842;DHT22;71284;50.918;7.092;2023-09-08T04:39:48;18.60;62.70
81842;DHT22;71284;50.918;7.092;2023-09-08T04:42:14;18.60;62.90
81842;DHT22;71284;50.918;7.092;2023-09-08T04:44:41;18.50;63.30
81842;DHT22;71284;50.918;7.092;2023-09-08T04:47:08;18.40;63.10
81842;DHT22;71284;50.918;7.092;2023-09-08T04:49:34;18.60;62.90
81842;DHT22;71284;50.918;7.092;2023-09-08T04:52:01;18.50;62.90
81842;DHT22;71284;50.918;7.092;2023-09-08T04:54:27;18.70;62.50
81842;DHT22;71284;50.918;7.092;2023-09-08T04:56:54;18.70;62.10
81842;DHT22;71284;50.918;7.092;2023-09-08T04:59:21;18.70;61.70
81842;DHT22;71284;50.918;7.092;2023-09-08T05:01:47;18.70;62.10
81842;DHT22;71284;50.918;7.092;2023-09-08T05:04:14;18.60;62.10
81842;DHT22;71284;50.918;7.092;2023-09-08T05:06:40;18.60;62.00
81842;DHT22;71284;50.918;7.092;2023-09-08T05:09:07;18.60;62.10
81842;DHT22;71284;50.918;7.092;2023-09-08T05:11:34;18.50;62.70
81842;DHT22;71284;50.918;7.092;2023-09-08T05:14:00;18.40;62.80
81842;DHT22;71284;50.918;7.092;2023-09-08T05:16:27;18.50;62.50
81842;DHT22;71284;50.918;7.092;2023-09-08T05:18:59;18.60;62.40
81842;DHT22;71284;50.918;7.092;2023-09-08T05:21:26;18.50;62.40
81842;DHT22;71284;50.918;7.092;2023-09-08T05:23:52;18.50;62.40
81842;DHT22;71284;50.918;7.092;2023-09-08T05:26:19;18.60;61.70
81842;DHT22;71284;50.918;7.092;2023-09-08T05:28:46;18.70;61.80
81842;DHT22;71284;50.918;7.092;2023-09-08T05:31:13;18.70;61.90
81842;DHT22;71284;50.918;7.092;2023-09-08T05:33:39;18.70;61.80
81842;DHT22;71284;50.918;7.092;2023-09-08T05:36:06;18.70;61.80
81842;DHT22;71284;50.918;7.092;2023-09-08T05:38:32;18.70;61.60
81842;DHT22;71284;50.918;7.092;2023-09-08T05:40:59;18.70;61.50
81842;DHT22;71284;50.918;7.092;2023-09-08T05:43:26;18.70;61.60
81842;DHT22;71284;50.918;7.092;2023-09-08T05:45:52;18.80;61.30
81842;DHT22;71284;50.918;7.092;2023-09-08T05:48:19;18.90;61.60
81842;DHT22;71284;50.918;7.092;2023-09-08T05:50:45;19.00;61.60
81842;DHT22;71284;50.918;7.092;2023-09-08T05:53:12;18.90;61.30
81842;DHT22;71284;50.918;7.092;2023-09-08T05:55:39;19.00;61.40
81842;DHT22;71284;50.918;7.092;2023-09-08T05:58:05;19.10;61.40
81842;DHT22;71284;50.918;7.092;2023-09-08T06:00:32;19.10;61.10
81842;DHT22;71284;50.918;7.092;2023-09-08T06:02:58;19.20;61.20
81842;DHT22;71284;50.918;7.092;2023-09-08T06:05:25;19.30;61.10
81842;DHT22;71284;50.918;7.092;2023-09-08T06:07:52;19.40;60.70
81842;DHT22;71284;50.918;7.092;2023-09-08T06:10:18;19.40;60.60
81842;DHT22;71284;50.918;7.092;2023-09-08T06:12:45;19.50;60.90
81842;DHT22;71284;50.918;7.092;2023-09-08T06:15:11;19.60;60.50
81842;DHT22;71284;50.918;7.092;2023-09-08T06:17:38;19.70;60.60
81842;DHT22;71284;50.918;7.092;2023-09-08T06:20:05;19.80;60.50
81842;DHT22;71284;50.918;7.092;2023-09-08T06:22:32;19.90;60.50
81842;DHT22;71284;50.918;7.092;2023-09-08T06:24:58;20.00;60.10
81842;DHT22;71284;50.918;7.092;2023-09-08T06:27:25;20.10;60.30
81842;DHT22;71284;50.918;7.092;2023-09-08T06:29:51;20.20;60.00
81842;DHT22;71284;50.918;7.092;2023-09-08T06:32:18;20.30;60.40
81842;DHT22;71284;50.918;7.092;2023-09-08T06:34:45;20.40;59.40
81842;DHT22;71284;50.918;7.092;2023-09-08T06:37:11;20.50;59.70
81842;DHT22;71284;50.918;7.092;2023-09-08T06:39:38;20.50;60.00
81842;DHT22;71284;50.918;7.092;2023-09-08T06:42:04;20.60;59.10
81842;DHT22;71284;50.918;7.092;2023-09-08T06:44:31;20.70;59.50
81842;DHT22;71284;50.918;7.092;2023-09-08T06:46:58;20.90;59.50
81842;DHT22;71284;50.918;7.092;2023-09-08T06:49:24;20.90;59.20
81842;DHT22;71284;50.918;7.092;2023-09-08T06:51:51;20.90;59.20
81842;DHT22;71284;50.918;7.092;2023-09-08T06:54:17;21.10;58.20
81842;DHT22;71284;50.918;7.092;2023-09-08T06:56:44;21.20;57.40
81842;DHT22;71284;50.918;7.092;2023-09-08T06:59:10;21.40;56.80
81842;DHT22;71284;50.918;7.092;2023-09-08T07:01:37;21.60;56.70
81842;DHT22;71284;50.918;7.092;2023-09-08T07:04:04;21.80;56.30
81842;DHT22;71284;50.918;7.092;2023-09-08T07:06:30;21.90;55.50
81842;DHT22;71284;50.918;7.092;2023-09-08T07:08:57;21.90;56.00
81842;DHT22;71284;50.918;7.092;2023-09-08T07:11:24;22.10;55.10
81842;DHT22;71284;50.918;7.092;2023-09-08T07:13:50;22.30;54.40
81842;DHT22;71284;50.918;7.092;2023-09-08T07:16:17;22.30;54.00
81842;DHT22;71284;50.918;7.092;2023-09-08T07:18:43;22.50;54.10
81842;DHT22;71284;50.918;7.092;2023-09-08T07:21:10;22.60;54.10
81842;DHT22;71284;50.918;7.092;2023-09-08T07:23:37;22.80;53.80
81842;DHT22;71284;50.918;7.092;2023-09-08T07:26:03;22.80;53.20
81842;DHT22;71284;50.918;7.092;2023-09-08T07:28:30;22.90;53.40
81842;DHT22;71284;50.918;7.092;2023-09-08T07:31:01;23.10;52.90
81842;DHT22;71284;50.918;7.092;2023-09-08T07:33:27;23.10;53.20
81842;DHT22;71284;50.918;7.092;2023-09-08T07:35:53;23.20;53.20
81842;DHT22;71284;50.918;7.092;2023-09-08T07:38:20;23.40;52.70
81842;DHT22;71284;50.918;7.092;2023-09-08T07:40:46;23.50;52.00
81842;DHT22;71284;50.918;7.092;2023-09-08T07:43:13;23.60;52.50
81842;DHT22;71284;50.918;7.092;2023-09-08T07:45:40;23.70;52.20
81842;DHT22;71284;50.918;7.092;2023-09-08T07:48:06;23.80;51.70
81842;DHT22;71284;50.918;7.092;2023-09-08T07:50:33;23.90;51.20
81842;DHT22;71284;50.918;7.092;2023-09-08T07:52:59;24.10;51.30
81842;DHT22;71284;50.918;7.092;2023-09-08T07:55:26;24.20;50.50
81842;DHT22;71284;50.918;7.092;2023-09-08T07:57:53;24.20;50.20
81842;DHT22;71284;50.918;7.092;2023-09-08T08:00:19;24.40;50.60
81842;DHT22;71284;50.918;7.092;2023-09-08T08:02:47;24.70;49.90
81842;DHT22;71284;50.918;7.092;2023-09-08T08:05:12;24.90;49.90
81842;DHT22;71284;50.918;7.092;2023-09-08T08:07:39;25.00;49.50
81842;DHT22;71284;50.918;7.092;2023-09-08T08:10:06;25.10;48.90
81842;DHT22;71284;50.918;7.092;2023-09-08T08:12:33;25.30;49.30
81842;DHT22;71284;50.918;7.092;2023-09-08T08:14:59;25.30;48.60
81842;DHT22;71284;50.918;7.092;2023-09-08T08:17:26;25.30;49.60
81842;DHT22;71284;50.918;7.092;2023-09-08T08:19:53;25.50;49.40
81842;DHT22;71284;50.918;7.092;2023-09-08T08:22:19;25.60;49.30
81842;DHT22;71284;50.918;7.092;2023-09-08T08:24:46;25.60;48.40
81842;DHT22;71284;50.918;7.092;2023-09-08T08:27:12;25.70;48.10
81842;DHT22;71284;50.918;7.092;2023-09-08T08:29:39;25.70;48.80
81842;DHT22;71284;50.918;7.092;2023-09-08T08:32:05;25.70;47.70
81842;DHT22;71284;50.918;7.092;2023-09-08T08:34:32;25.70;47.40
81842;DHT22;71284;50.918;7.092;2023-09-08T08:36:59;25.80;46.00
81842;DHT22;71284;50.918;7.092;2023-09-08T08:39:25;25.90;46.50
81842;DHT22;71284;50.918;7.092;2023-09-08T08:41:52;26.00;47.00
81842;DHT22;71284;50.918;7.092;2023-09-08T08:44:18;26.10;47.40
81842;DHT22;71284;50.918;7.092;2023-09-08T08:46:45;26.30;46.80
81842;DHT22;71284;50.918;7.092;2023-09-08T08:49:12;26.50;46.60
81842;DHT22;71284;50.918;7.092;2023-09-08T08:51:38;26.50;45.60
81842;DHT22;71284;50.918;7.092;2023-09-08T08:54:05;26.60;45.10
81842;DHT22;71284;50.918;7.092;2023-09-08T08:56:32;26.60;44.40
81842;DHT22;71284;50.918;7.092;2023-09-08T08:58:58;26.70;45.20
81842;DHT22;71284;50.918;7.092;2023-09-08T09:01:25;26.80;44.90
81842;DHT22;71284;50.918;7.092;2023-09-08T09:03:51;27.00;45.00
81842;DHT22;71284;50.918;7.092;2023-09-08T09:06:18;27.00;46.50
81842;DHT22;71284;50.918;7.092;2023-09-08T09:08:44;27.20;46.20
81842;DHT22;71284;50.918;7.092;2023-09-08T09:11:11;27.10;46.20
81842;DHT22;71284;50.918;7.092;2023-09-08T09:13:37;27.20;45.60
81842;DHT22;71284;50.918;7.092;2023-09-08T09:16:04;27.20;45.40
81842;DHT22;71284;50.918;7.092;2023-09-08T09:18:31;27.30;46.50
81842;DHT22;71284;50.918;7.092;2023-09-08T09:21:00;27.30;45.20
81842;DHT22;71284;50.918;7.092;2023-09-08T09:23:30;27.40;45.20
81842;DHT22;71284;50.918;7.092;2023-09-08T09:25:57;27.50;44.30
81842;DHT22;71284;50.918;7.092;2023-09-08T09:28:23;27.40;45.90
81842;DHT22;71284;50.918;7.092;2023-09-08T09:30:51;27.50;45.90
81842;DHT22;71284;50.918;7.092;2023-09-08T09:33:17;27.70;44.30
81842;DHT22;71284;50.918;7.092;2023-09-08T09:35:46;27.90;44.80
81842;DHT22;71284;50.918;7.092;2023-09-08T09:38:11;27.90;44.20
81842;DHT22;71284;50.918;7.092;2023-09-08T09:40:38;27.90;43.00
81842;DHT22;71284;50.918;7.092;2023-09-08T09:43:04;28.00;44.10
81842;DHT22;71284;50.918;7.092;2023-09-08T09:45:33;28.10;44.30
81842;DHT22;71284;50.918;7.092;2023-09-08T09:47:58;28.20;44.60
81842;DHT22;71284;50.918;7.092;2023-09-08T09:50:29;28.30;43.80
81842;DHT22;71284;50.918;7.092;2023-09-08T09:52:57;28.40;44.40
81842;DHT22;71284;50.918;7.092;2023-09-08T09:55:22;28.50;43.00
81842;DHT22;71284;50.918;7.092;2023-09-08T09:57:48;28.50;43.40
81842;DHT22;71284;50.918;7.092;2023-09-08T10:00:15;28.60;42.90
81842;DHT22;71284;50.918;7.092;2023-09-08T10:02:42;28.70;43.00
81842;DHT22;71284;50.918;7.092;2023-09-08T10:05:11;28.80;43.00
81842;DHT22;71284;50.918;7.092;2023-09-08T10:07:39;28.80;42.30
81842;DHT22;71284;50.918;7.092;2023-09-08T10:10:06;28.80;42.20
81842;DHT22;71284;50.918;7.092;2023-09-08T10:12:33;28.80;42.80
81842;DHT22;71284;50.918;7.092;2023-09-08T10:15:00;28.90;42.00
81842;DHT22;71284;50.918;7.092;2023-09-08T10:17:26;28.90;42.90
81842;DHT22;71284;50.918;7.092;2023-09-08T10:19:53;28.90;42.40
81842;DHT22;71284;50.918;7.092;2023-09-08T10:22:20;29.00;43.10
81842;DHT22;71284;50.918;7.092;2023-09-08T10:24:46;29.10;43.10
81842;DHT22;71284;50.918;7.092;2023-09-08T10:27:13;29.20;42.40
81842;DHT22;71284;50.918;7.092;2023-09-08T10:29:39;29.30;42.20
81842;DHT22;71284;50.918;7.092;2023-09-08T10:32:07;29.50;42.40
81842;DHT22;71284;50.918;7.092;2023-09-08T10:34:33;29.40;42.00
81842;DHT22;71284;50.918;7.092;2023-09-08T10:37:00;29.40;41.50
81842;DHT22;71284;50.918;7.092;2023-09-08T10:39:32;29.40;42.10
81842;DHT22;71284;50.918;7.092;2023-09-08T10:44:38;29.50;41.50
81842;DHT22;71284;50.918;7.092;2023-09-08T10:47:03;29.60;41.70
81842;DHT22;71284;50.918;7.092;2023-09-08T10:49:31;29.60;42.20
81842;DHT22;71284;50.918;7.092;2023-09-08T10:52:05;29.80;42.00
81842;DHT22;71284;50.918;7.092;2023-09-08T10:54:43;29.80;41.20
81842;DHT22;71284;50.918;7.092;2023-09-08T10:57:21;29.90;41.90
81842;DHT22;71284;50.918;7.092;2023-09-08T10:59:54;30.00;41.40
81842;DHT22;71284;50.918;7.092;2023-09-08T11:02:41;30.00;41.40
81842;DHT22;71284;50.918;7.092;2023-09-08T11:05:08;30.00;41.00
81842;DHT22;71284;50.918;7.092;2023-09-08T11:07:36;30.00;41.10
81842;DHT22;71284;50.918;7.092;2023-09-08T11:10:02;30.10;40.80
81842;DHT22;71284;50.918;7.092;2023-09-08T11:12:29;30.20;41.00
81842;DHT22;71284;50.918;7.092;2023-09-08T11:14:55;30.30;41.00
81842;DHT22;71284;50.918;7.092;2023-09-08T11:17:25;30.30;40.60
81842;DHT22;71284;50.918;7.092;2023-09-08T11:19:51;30.40;41.20
81842;DHT22;71284;50.918;7.092;2023-09-08T11:22:18;30.50;40.30
81842;DHT22;71284;50.918;7.092;2023-09-08T11:24:44;30.30;39.50
81842;DHT22;71284;50.918;7.092;2023-09-08T11:27:11;30.40;39.60
81842;DHT22;71284;50.918;7.092;2023-09-08T11:29:38;30.60;39.60
81842;DHT22;71284;50.918;7.092;2023-09-08T11:32:05;30.70;40.10
81842;DHT22;71284;50.918;7.092;2023-09-08T11:34:31;30.80;39.60
81842;DHT22;71284;50.918;7.092;2023-09-08T11:36:58;30.90;39.90
81842;DHT22;71284;50.918;7.092;2023-09-08T11:39:24;30.80;38.60
81842;DHT22;71284;50.918;7.092;2023-09-08T11:41:52;30.90;38.70
81842;DHT22;71284;50.918;7.092;2023-09-08T11:44:18;31.00;38.90
81842;DHT22;71284;50.918;7.092;2023-09-08T11:46:46;31.00;39.00
81842;DHT22;71284;50.918;7.092;2023-09-08T11:49:12;31.10;38.50
81842;DHT22;71284;50.918;7.092;2023-09-08T11:51:38;31.20;37.90
81842;DHT22;71284;50.918;7.092;2023-09-08T11:54:05;31.30;37.90
81842;DHT22;71284;50.918;7.092;2023-09-08T11:56:31;31.80;37.40
81842;DHT22;71284;50.918;7.092;2023-09-08T11:58:58;32.10;37.40
81842;DHT22;71284;50.918;7.092;2023-09-08T12:01:25;32.30;36.30
81842;DHT22;71284;50.918;7.092;2023-09-08T12:03:52;32.30;36.60
81842;DHT22;71284;50.918;7.092;2023-09-08T12:06:18;32.20;37.90
81842;DHT22;71284;50.918;7.092;2023-09-08T12:08:45;32.20;37.20
81842;DHT22;71284;50.918;7.092;2023-09-08T12:11:12;32.20;36.60
81842;DHT22;71284;50.918;7.092;2023-09-08T12:13:38;32.10;36.60
81842;DHT22;71284;50.918;7.092;2023-09-08T12:16:24;31.90;36.30
81842;DHT22;71284;50.918;7.092;2023-09-08T12:18:50;31.70;36.20
81842;DHT22;71284;50.918;7.092;2023-09-08T12:21:17;31.70;36.40
81842;DHT22;71284;50.918;7.092;2023-09-08T12:23:47;31.80;37.20
81842;DHT22;71284;50.918;7.092;2023-09-08T12:26:13;31.80;35.10
81842;DHT22;71284;50.918;7.092;2023-09-08T12:28:39;31.80;36.40
81842;DHT22;71284;50.918;7.092;2023-09-08T12:31:06;32.00;35.90
81842;DHT22;71284;50.918;7.092;2023-09-08T12:33:33;31.90;35.50
81842;DHT22;71284;50.918;7.092;2023-09-08T12:36:00;32.00;35.40
81842;DHT22;71284;50.918;7.092;2023-09-08T12:38:30;32.00;35.80
81842;DHT22;71284;50.918;7.092;2023-09-08T12:40:53;32.10;35.90
81842;DHT22;71284;50.918;7.092;2023-09-08T12:43:19;32.10;36.20
81842;DHT22;71284;50.918;7.092;2023-09-08T12:45:46;32.00;35.70
81842;DHT22;71284;50.918;7.092;2023-09-08T12:48:12;32.20;35.20
81842;DHT22;71284;50.918;7.092;2023-09-08T12:50:39;32.10;35.20
81842;DHT22;71284;50.918;7.092;2023-09-08T12:53:06;32.30;35.30
81842;DHT22;71284;50.918;7.092;2023-09-08T12:55:32;32.60;35.50
81842;DHT22;71284;50.918;7.092;2023-09-08T12:57:59;32.80;34.40
81842;DHT22;71284;50.918;7.092;2023-09-08T13:00:26;32.70;35.10
81842;DHT22;71284;50.918;7.092;2023-09-08T13:02:52;32.80;34.90
81842;DHT22;71284;50.918;7.092;2023-09-08T13:05:19;33.10;34.70
81842;DHT22;71284;50.918;7.092;2023-09-08T13:07:45;33.30;34.50
81842;DHT22;71284;50.918;7.092;2023-09-08T13:10:12;33.40;35.00
81842;DHT22;71284;50.918;7.092;2023-09-08T13:12:39;33.60;33.60
81842;DHT22;71284;50.918;7.092;2023-09-08T13:15:06;33.60;33.10
81842;DHT22;71284;50.918;7.092;2023-09-08T13:17:32;33.30;33.50
81842;DHT22;71284;50.918;7.092;2023-09-08T13:19:59;33.40;33.80
81842;DHT22;71284;50.918;7.092;2023-09-08T13:22:25;33.40;33.00
81842;DHT22;71284;50.918;7.092;2023-09-08T13:24:52;33.50;33.00
81842;DHT22;71284;50.918;7.092;2023-09-08T13:27:19;33.50;34.70
81842;DHT22;71284;50.918;7.092;2023-09-08T13:29:45;33.50;33.50
81842;DHT22;71284;50.918;7.092;2023-09-08T13:32:12;33.40;34.70
81842;DHT22;71284;50.918;7.092;2023-09-08T13:34:39;33.30;33.40
81842;DHT22;71284;50.918;7.092;2023-09-08T13:37:06;33.30;34.40
81842;DHT22;71284;50.918;7.092;2023-09-08T13:39:33;33.10;33.80
81842;DHT22;71284;50.918;7.092;2023-09-08T13:42:00;33.10;34.60
81842;DHT22;71284;50.918;7.092;2023-09-08T13:44:26;33.50;34.40
81842;DHT22;71284;50.918;7.092;2023-09-08T13:46:53;33.90;33.60
81842;DHT22;71284;50.918;7.092;2023-09-08T13:49:20;34.20;33.90
81842;DHT22;71284;50.918;7.092;2023-09-08T13:51:47;34.40;32.60
81842;DHT22;71284;50.918;7.092;2023-09-08T13:54:13;34.50;33.00
81842;DHT22;71284;50.918;7.092;2023-09-08T13:56:41;34.70;32.50
81842;DHT22;71284;50.918;7.092;2023-09-08T13:59:07;34.80;32.60
81842;DHT22;71284;50.918;7.092;2023-09-08T14:01:34;34.80;31.90
81842;DHT22;71284;50.918;7.092;2023-09-08T14:04:00;34.80;33.30
81842;DHT22;71284;50.918;7.092;2023-09-08T14:06:27;34.90;32.40
81842;DHT22;71284;50.918;7.092;2023-09-08T14:08:53;34.90;32.60
81842;DHT22;71284;50.918;7.092;2023-09-08T14:11:21;34.80;32.10
81842;DHT22;71284;50.918;7.092;2023-09-08T14:13:47;34.70;33.10
81842;DHT22;71284;50.918;7.092;2023-09-08T14:16:13;34.70;33.40
81842;DHT22;71284;50.918;7.092;2023-09-08T14:18:40;34.60;32.40
81842;DHT22;71284;50.918;7.092;2023-09-08T14:21:07;34.20;32.40
81842;DHT22;71284;50.918;7.092;2023-09-08T14:23:34;33.90;32.90
81842;DHT22;71284;50.918;7.092;2023-09-08T14:26:00;33.90;32.60
81842;DHT22;71284;50.918;7.092;2023-09-08T14:28:27;33.90;33.50
81842;DHT22;71284;50.918;7.092;2023-09-08T14:30:53;34.00;33.00
81842;DHT22;71284;50.918;7.092;2023-09-08T14:33:21;34.00;34.20
81842;DHT22;71284;50.918;7.092;2023-09-08T14:35:47;34.00;33.20
81842;DHT22;71284;50.918;7.092;2023-09-08T14:38:14;34.00;33.80
81842;DHT22;71284;50.918;7.092;2023-09-08T14:40:41;34.00;33.80
81842;DHT22;71284;50.918;7.092;2023-09-08T14:43:07;34.00;33.40
81842;DHT22;71284;50.918;7.092;2023-09-08T14:45:34;34.10;33.90
81842;DHT22;71284;50.918;7.092;2023-09-08T14:48:01;34.10;33.30
81842;DHT22;71284;50.918;7.092;2023-09-08T14:50:27;34.20;33.40
81842;DHT22;71284;50.918;7.092;2023-09-08T14:52:54;34.60;33.50
81842;DHT22;71284;50.918;7.092;2023-09-08T14:55:20;35.20;32.00
81842;DHT22;71284;50.918;7.092;2023-09-08T14:57:47;36.10;31.60
81842;DHT22;71284;50.918;7.092;2023-09-08T15:00:14;36.80;30.00
81842;DHT22;71284;50.918;7.092;2023-09-08T15:02:41;36.90;30.20
81842;DHT22;71284;50.918;7.092;2023-09-08T15:05:08;36.70;30.60
81842;DHT22;71284;50.918;7.092;2023-09-08T15:07:34;36.30;31.20
81842;DHT22;71284;50.918;7.092;2023-09-08T15:10:01;35.90;31.50
81842;DHT22;71284;50.918;7.092;2023-09-08T15:12:28;35.60;31.80
81842;DHT22;71284;50.918;7.092;2023-09-08T15:14:54;35.10;32.70
81842;DHT22;71284;50.918;7.092;2023-09-08T15:17:21;34.80;32.20
81842;DHT22;71284;50.918;7.092;2023-09-08T15:19:47;34.70;32.80
81842;DHT22;71284;50.918;7.092;2023-09-08T15:22:14;34.70;32.90
81842;DHT22;71284;50.918;7.092;2023-09-08T15:24:41;34.60;33.20
81842;DHT22;71284;50.918;7.092;2023-09-08T15:27:07;34.40;33.50
81842;DHT22;71284;50.918;7.092;2023-09-08T15:29:34;34.20;33.50